ボレ国際空港(アディスアベバ)の過去48時間の天気

ボレ国際空港(アディスアベバ) (Addis Ababa)

現在時刻: 2/6 22:47 EAT (2/6 19:47 UTC) 以下の時間は現地時間です。

過去48時間のMETAR気象情報
時間 風向 風速(m/s) 視程 気温(℃) 湿度(%) 気圧(hPa) 天気現象
6 21:00 7 10km以上 16 42 1026
6 20:00 東北東 7 10km以上 17 42 1026
6 19:00 9 10km以上 18 37 1025
6 18:00 3 10km以上 21 33 1024
6 17:00 4 10km以上 23 25 1023
6 16:00 東南東 4 10km以上 25 22 1023
6 14:00 東南東 9 10km以上 25 - 1024
6 13:00 7 10km以上 24 - 1025
6 12:00 3 10km以上 23 - 1026
6 11:00 東南東 3 10km以上 21 31 1027
6 10:00 4 10km以上 19 37 1027
6 09:00 東南東 2 10km以上 16 51 1027
6 08:00 2 10km以上 14 59 1027
6 07:00 北東 3 10km以上 11 71 1026
6 06:00 2 10km以上 9 53 1026
6 05:00 東北東 1 10km以上 10 50 1025
6 04:00 東北東 3 10km以上 10 50 1025
6 03:00 北西 2 10km以上 11 43 1025
6 02:00 東北東 3 10km以上 11 43 1026
6 01:00 北北西 3 10km以上 12 41 1027
6 00:00 3 10km以上 13 38 1027
5 23:00 東北東 5 10km以上 16 29 1027
5 21:00 東北東 3 10km以上 16 29 1027
5 20:00 東北東 6 10km以上 18 26 1026
5 19:00 東北東 6 10km以上 18 26 1025
5 18:00 9 10km以上 21 21 1024
5 17:00 8 10km以上 23 19 1023
5 15:00 4 10km以上 24 14 1023
5 14:00 4 10km以上 24 12 1024
5 11:00 東南東 1 10km以上 21 20 1027
5 09:00 2 10km以上 14 63 1027
5 05:00 東北東 3 10km以上 10 82 1025
5 04:00 北北東 2 10km以上 11 76 1025
5 03:00 北西 2 10km以上 10 76 1025
5 02:00 北西 2 10km以上 12 71 1026
5 01:00 東北東 4 10km以上 12 71 1026
5 00:00 5 10km以上 13 67 1027
4 23:00 北東 6 10km以上 15 59 1027
HAAB 061800Z 08014KT 9999 FEW025 16/03 Q1026 NOSIG
HAAB 061700Z 07014KT 9999 FEW025 17/04 Q1026 NOSIG
HAAB 061600Z 09018KT 9999 FEW025 18/03 Q1025 NOSIG
HAAB 061500Z 10006KT CAVOK 21/04 Q1024 NOSIG
HAAB 061400Z 10008KT CAVOK 23/02 Q1023 NOSIG
HAAB 061300Z 12007KT CAVOK 25/02 Q1023 NOSIG
HAAB 061100Z 11017KT CAVOK 25/M4 Q1024 NOSIG
HAAB 061000Z 10013KT CAVOK 24/M1 Q1025 NOSIG
HAAB 060900Z 09005KT CAVOK 23/M1 Q1026 NOSIG
HAAB 060800Z 11006KT CAVOK 21/03 Q1027 NOSIG
HAAB 060700Z 10007KT CAVOK 19/04 Q1027 NOSIG
HAAB 060600Z 12003KT CAVOK 16/06 Q1027 NOSIG
HAAB 060500Z 08004KT CAVOK 14/06 Q1027 NOSIG
HAAB 060400Z 04006KT CAVOK 11/06 Q1026 NOSIG
HAAB 060300Z 08003KT CAVOK 09/00 Q1026 NOSIG
HAAB 060200Z 06002KT CAVOK 10/M00 Q1025 NOSIG
HAAB 060100Z 06006KT CAVOK 10/M00 Q1025 NOSIG
HAAB 060000Z 32004KT CAVOK 11/M01 Q1025 NOSIG
HAAB 052300Z 06005KT CAVOK 11/M01 Q1026 NOSIG
HAAB 052200Z 34005KT CAVOK 12/M01 Q1027 NOSIG
HAAB 052100Z 10006KT C A VOK 13/M01 Q1027 NOSIG
HAAB 052000Z 060010KT C A VOK 16/M02 Q1027 NOSIG
HAAB 051800Z 07005KT C A VOK 16/M02 Q1027 NOSIG
HAAB 051700Z 07012KT 9999 FEW025 18/M02 Q1026 NOSIG
HAAB 051600Z 07012KT 9999 FEW025 18/M02 Q1025 NOSIG
HAAB 051500Z 08018KT 9999 FEW025 21/M02 Q1024 NOSIG
HAAB 051400Z 08015KT 9999 FEW025 23/M02 Q1023 NOSIG
HAAB 051200Z 09007KT 9999 FEW025 24/M05 Q1023 NOSIG
HAAB 051100Z 09008KT CAVOK 24/M07 Q1024 NOSIG
HAAB 050800Z 12001KT CAVOK 21/M03 Q1027 NOSIG
HAAB 050600Z 09004KT CAVOK 14/07 Q1027 NOSIG
HAAB 050200Z 07006KT 9999 FEW025 10/07 Q1025 NOSIG
HAAB 050100Z 02004KT 9999 FEW025 11/07 Q1025 NOSIG
HAAB 050000Z 32004KT 9999 FEW025 10/06 Q1025 NOSIG
HAAB 042300Z 32004KT 9999 FEW025 12/07 Q1026 NOSIG
HAAB 042200Z 06008KT 9999 FEW025 12/07 Q1026 NOSIG
HAAB 042100Z 080010KT 9999 FEW025 13/07 Q1027 NOSIG
HAAB 042000Z 050012KT 9999 FEW025 15/07 Q1027 NOSIG